createdAt,value
2018-12-20T00:00:15.011Z,951.59
2018-12-20T00:01:14.918Z,951.63
2018-12-20T00:02:14.926Z,951.6
2018-12-20T00:03:14.883Z,951.57
2018-12-20T00:04:14.864Z,951.59
2018-12-20T00:05:14.905Z,951.58
2018-12-20T00:06:14.938Z,951.53
2018-12-20T00:07:14.867Z,951.57
2018-12-20T00:08:14.912Z,951.57
2018-12-20T00:09:14.778Z,951.54
2018-12-20T00:10:14.758Z,951.54
2018-12-20T00:11:14.741Z,951.53
2018-12-20T00:12:14.792Z,951.55
2018-12-20T00:13:14.717Z,951.54
2018-12-20T00:14:14.739Z,951.55
2018-12-20T00:15:14.769Z,951.54
2018-12-20T00:16:14.753Z,951.51
2018-12-20T00:17:14.634Z,951.55
2018-12-20T00:18:14.613Z,951.55
2018-12-20T00:19:14.601Z,951.53
2018-12-20T00:20:14.580Z,951.55
2018-12-20T00:21:14.650Z,951.54
2018-12-20T00:22:14.542Z,951.53
2018-12-20T00:23:14.552Z,951.54
2018-12-20T00:24:14.505Z,951.55
2018-12-20T00:25:14.490Z,951.54
2018-12-20T00:26:14.473Z,951.53
2018-12-20T00:27:14.472Z,951.52
2018-12-20T00:28:14.433Z,951.55
2018-12-20T00:29:14.458Z,951.57
2018-12-20T00:30:14.398Z,951.55
2018-12-20T00:31:14.380Z,951.56
2018-12-20T00:32:14.462Z,951.54
2018-12-20T00:33:14.426Z,951.51
2018-12-20T00:34:14.407Z,951.55
2018-12-20T00:35:14.353Z,951.51
2018-12-20T00:36:14.445Z,951.5
2018-12-20T00:37:14.447Z,951.53
2018-12-20T00:38:14.267Z,951.5
2018-12-20T00:39:14.321Z,951.5
2018-12-20T00:40:14.219Z,951.49
2018-12-20T00:41:14.323Z,951.49
2018-12-20T00:42:14.185Z,951.41
2018-12-20T00:43:14.166Z,951.44
2018-12-20T00:44:14.171Z,951.44
2018-12-20T00:45:14.150Z,951.41
2018-12-20T00:46:14.155Z,951.43
2018-12-20T00:47:14.092Z,951.44
2018-12-20T00:48:14.089Z,951.48
2018-12-20T00:49:14.057Z,951.46
2018-12-20T00:50:14.124Z,951.46
2018-12-20T00:51:14.022Z,951.45
2018-12-20T00:52:14.004Z,951.45
2018-12-20T00:53:13.987Z,951.47
2018-12-20T00:54:14.066Z,951.47
2018-12-20T00:55:13.969Z,951.46
2018-12-20T00:56:13.931Z,951.47
2018-12-20T00:57:13.915Z,951.46
2018-12-20T00:58:13.917Z,951.48
2018-12-20T00:59:13.893Z,951.45
2018-12-20T01:00:13.860Z,951.48
2018-12-20T01:01:13.902Z,951.53
2018-12-20T01:02:13.824Z,951.53
2018-12-20T01:03:13.810Z,951.53
2018-12-20T01:04:13.793Z,951.54
2018-12-20T01:05:13.770Z,951.55
2018-12-20T01:06:13.900Z,951.55
2018-12-20T01:07:13.816Z,951.59
2018-12-20T01:08:13.717Z,951.61
2018-12-20T01:09:13.782Z,951.55
2018-12-20T01:10:13.682Z,951.63
2018-12-20T01:11:13.700Z,951.58
2018-12-20T01:12:13.645Z,951.66
2018-12-20T01:13:13.627Z,951.64
2018-12-20T01:14:13.609Z,951.67
2018-12-20T01:15:13.605Z,951.67
2018-12-20T01:16:13.577Z,951.63
2018-12-20T01:17:13.556Z,951.65
2018-12-20T01:18:13.557Z,951.65
2018-12-20T01:19:13.587Z,951.68
2018-12-20T01:20:13.630Z,951.68
2018-12-20T01:21:13.713Z,951.64
2018-12-20T01:22:13.651Z,951.63
2018-12-20T01:23:13.453Z,951.69
2018-12-20T01:24:13.444Z,951.71
2018-12-20T01:25:13.413Z,951.7
2018-12-20T01:26:13.393Z,951.72
2018-12-20T01:27:13.384Z,951.76
2018-12-20T01:28:13.447Z,951.73
2018-12-20T01:29:13.340Z,951.71
2018-12-20T01:30:13.323Z,951.69
2018-12-20T01:31:13.671Z,951.7
2018-12-20T01:32:13.297Z,951.64
2018-12-20T01:33:13.397Z,951.71
2018-12-20T01:34:13.306Z,951.72
2018-12-20T01:35:13.450Z,951.74
2018-12-20T01:36:13.330Z,951.73
2018-12-20T01:37:13.311Z,951.77
2018-12-20T01:38:13.177Z,951.79
2018-12-20T01:39:13.278Z,951.81
2018-12-20T01:40:13.292Z,951.78
2018-12-20T01:41:13.207Z,951.8
2018-12-20T01:42:13.106Z,951.8
2018-12-20T01:43:13.193Z,951.83
2018-12-20T01:44:13.239Z,951.86
2018-12-20T01:45:13.279Z,951.85
2018-12-20T01:46:13.032Z,951.86
2018-12-20T01:47:13.145Z,951.89
2018-12-20T01:48:13.245Z,951.86
2018-12-20T01:49:12.980Z,951.88
2018-12-20T01:50:13.154Z,951.87
2018-12-20T01:51:13.164Z,951.99
2018-12-20T01:52:12.930Z,951.98
2018-12-20T01:53:12.946Z,951.96
2018-12-20T01:54:12.889Z,951.95
2018-12-20T01:55:12.880Z,951.96
2018-12-20T01:56:13.091Z,952.04
2018-12-20T01:57:12.996Z,952.03
2018-12-20T01:58:12.816Z,952.09
2018-12-20T01:59:12.879Z,952.07
2018-12-20T02:00:13.003Z,952.05
2018-12-20T02:01:12.762Z,952.09
2018-12-20T02:02:12.850Z,952.08
2018-12-20T02:03:12.817Z,952.13
2018-12-20T02:04:12.725Z,952.12
2018-12-20T02:05:12.728Z,952.13
2018-12-20T02:06:12.671Z,952.12
2018-12-20T02:07:12.663Z,952.14
2018-12-20T02:08:12.751Z,952.09
2018-12-20T02:09:12.643Z,952.07
2018-12-20T02:10:12.612Z,952.09
2018-12-20T02:11:12.751Z,952.03
2018-12-20T02:12:12.563Z,952.04
2018-12-20T02:13:12.544Z,951.99
2018-12-20T02:14:12.547Z,952.02
2018-12-20T02:15:12.509Z,951.98
2018-12-20T02:16:12.589Z,951.91
2018-12-20T02:17:12.474Z,951.95
2018-12-20T02:18:12.652Z,951.87
2018-12-20T02:19:12.657Z,951.88
2018-12-20T02:20:12.419Z,951.89
2018-12-20T02:21:12.400Z,951.79
2018-12-20T02:22:12.392Z,951.9
2018-12-20T02:23:12.453Z,951.81
2018-12-20T02:24:12.347Z,951.78
2018-12-20T02:25:12.328Z,951.76
2018-12-20T02:26:12.310Z,951.8
2018-12-20T02:27:12.302Z,951.78
2018-12-20T02:28:12.391Z,951.73
2018-12-20T02:29:12.317Z,951.73
2018-12-20T02:30:12.388Z,951.71
2018-12-20T02:31:12.249Z,951.7
2018-12-20T02:32:12.530Z,951.74
2018-12-20T02:33:12.195Z,951.71
2018-12-20T02:34:12.488Z,951.73
2018-12-20T02:35:12.262Z,951.7
2018-12-20T02:36:12.328Z,951.69
2018-12-20T02:37:12.132Z,951.67
2018-12-20T02:38:12.193Z,951.68
2018-12-20T02:39:12.084Z,951.63
2018-12-20T02:40:12.211Z,951.62
2018-12-20T02:41:12.038Z,951.67
2018-12-20T02:42:12.117Z,951.63
2018-12-20T02:43:12.002Z,951.6
2018-12-20T02:44:12.137Z,951.59
2018-12-20T02:45:11.967Z,951.59
2018-12-20T02:46:11.949Z,951.57
2018-12-20T02:47:11.969Z,951.56
2018-12-20T02:48:11.912Z,951.6
2018-12-20T02:49:12.112Z,951.66
2018-12-20T02:50:11.880Z,951.64
2018-12-20T02:51:11.929Z,951.68
2018-12-20T02:52:12.008Z,951.72
2018-12-20T02:53:11.824Z,951.74
2018-12-20T02:54:11.827Z,951.7
2018-12-20T02:55:11.814Z,951.68
2018-12-20T02:56:11.770Z,951.62
2018-12-20T02:57:11.899Z,951.65
2018-12-20T02:58:11.872Z,951.68
2018-12-20T02:59:11.838Z,951.67
2018-12-20T03:00:11.696Z,951.66
2018-12-20T03:01:11.778Z,951.65
2018-12-20T03:02:11.708Z,951.63
2018-12-20T03:03:11.705Z,951.72
2018-12-20T03:04:11.662Z,951.75
2018-12-20T03:05:11.639Z,951.72
2018-12-20T03:06:11.675Z,951.7
2018-12-20T03:07:11.603Z,951.68
2018-12-20T03:08:11.598Z,951.65
2018-12-20T03:09:11.632Z,951.67
2018-12-20T03:10:11.577Z,951.6
2018-12-20T03:11:11.522Z,951.61
2018-12-20T03:12:11.477Z,951.6
2018-12-20T03:13:11.484Z,951.64
2018-12-20T03:14:11.442Z,951.62
2018-12-20T03:15:19.660Z,951.62
2018-12-20T03:16:11.449Z,951.6
2018-12-20T03:17:11.474Z,951.53
2018-12-20T03:18:11.530Z,951.6
2018-12-20T03:19:11.354Z,951.6
2018-12-20T03:20:11.427Z,951.61
2018-12-20T03:21:11.316Z,951.52
2018-12-20T03:22:11.557Z,951.64
2018-12-20T03:23:11.501Z,951.58
2018-12-20T03:24:11.300Z,951.58
2018-12-20T03:25:11.294Z,951.57
2018-12-20T03:26:11.236Z,951.53
2018-12-20T03:27:11.472Z,951.57
2018-12-20T03:28:11.191Z,951.56
2018-12-20T03:29:11.170Z,951.52
2018-12-20T03:30:11.153Z,951.55
2018-12-20T03:31:11.181Z,951.49
2018-12-20T03:32:11.153Z,951.5
2018-12-20T03:33:11.098Z,951.52
2018-12-20T03:34:11.117Z,951.52
2018-12-20T03:35:11.199Z,951.46
2018-12-20T03:36:11.074Z,951.49
2018-12-20T03:37:11.085Z,951.53
2018-12-20T03:38:11.103Z,951.54
2018-12-20T03:39:11.112Z,951.56
2018-12-20T03:40:11.251Z,951.57
2018-12-20T03:41:11.131Z,951.58
2018-12-20T03:42:11.091Z,951.58
2018-12-20T03:43:11.013Z,951.49
2018-12-20T03:44:10.897Z,951.55
2018-12-20T03:45:13.108Z,951.53
2018-12-20T03:46:10.931Z,951.48
2018-12-20T03:47:10.845Z,951.51
2018-12-20T03:48:10.885Z,951.49
2018-12-20T03:49:10.943Z,951.54
2018-12-20T03:50:10.787Z,951.5
2018-12-20T03:51:11.057Z,951.47
2018-12-20T03:52:10.778Z,951.54
2018-12-20T03:53:10.889Z,951.51
2018-12-20T03:54:10.792Z,951.52
2018-12-20T03:55:10.867Z,951.6
2018-12-20T03:56:10.880Z,951.55
2018-12-20T03:57:10.695Z,951.55
2018-12-20T03:58:10.687Z,951.55
2018-12-20T03:59:10.719Z,951.46
2018-12-20T04:00:10.947Z,951.56
2018-12-20T04:01:10.584Z,951.55
2018-12-20T04:02:10.567Z,951.54
2018-12-20T04:03:10.550Z,951.54
2018-12-20T04:04:10.530Z,951.55
2018-12-20T04:05:10.620Z,951.56
2018-12-20T04:06:10.566Z,951.51
2018-12-20T04:07:10.475Z,951.55
2018-12-20T04:08:10.622Z,951.52
2018-12-20T04:09:10.443Z,951.54
2018-12-20T04:10:10.517Z,951.54
2018-12-20T04:11:10.403Z,951.56
2018-12-20T04:12:10.388Z,951.58
2018-12-20T04:13:10.364Z,951.56
2018-12-20T04:14:10.347Z,951.58
2018-12-20T04:15:10.508Z,951.57
2018-12-20T04:16:10.342Z,951.57
2018-12-20T04:17:10.340Z,951.58
2018-12-20T04:18:10.436Z,951.53
2018-12-20T04:19:10.303Z,951.57
2018-12-20T04:20:10.332Z,951.5
2018-12-20T04:21:10.409Z,951.53
2018-12-20T04:22:10.200Z,951.5
2018-12-20T04:23:10.183Z,951.51
2018-12-20T04:24:10.281Z,951.53
2018-12-20T04:25:10.487Z,951.49
2018-12-20T04:26:10.474Z,951.58
2018-12-20T04:27:10.393Z,951.56
2018-12-20T04:28:10.117Z,951.52
2018-12-20T04:29:10.109Z,951.5
2018-12-20T04:30:10.053Z,951.55
2018-12-20T04:31:10.373Z,951.53
2018-12-20T04:32:10.018Z,951.53
2018-12-20T04:33:09.999Z,951.53
2018-12-20T04:34:10.229Z,951.59
2018-12-20T04:35:09.999Z,951.55
2018-12-20T04:36:09.960Z,951.56
2018-12-20T04:37:09.926Z,951.51
2018-12-20T04:38:09.905Z,951.49
2018-12-20T04:39:09.936Z,951.53
2018-12-20T04:40:09.870Z,951.56
2018-12-20T04:41:09.898Z,951.54
2018-12-20T04:42:09.833Z,951.57
2018-12-20T04:43:10.066Z,951.53
2018-12-20T04:44:09.997Z,951.52
2018-12-20T04:45:09.922Z,951.51
2018-12-20T04:46:09.761Z,951.51
2018-12-20T04:47:09.766Z,951.51
2018-12-20T04:48:09.771Z,951.5
2018-12-20T04:49:09.759Z,951.5
2018-12-20T04:50:09.696Z,951.5
2018-12-20T04:51:09.817Z,951.44
2018-12-20T04:52:09.858Z,951.43
2018-12-20T04:53:09.665Z,951.44
2018-12-20T04:54:09.615Z,951.41
2018-12-20T04:55:09.592Z,951.44
2018-12-20T04:56:09.727Z,951.42
2018-12-20T04:57:09.556Z,951.47
2018-12-20T04:58:09.674Z,951.47
2018-12-20T04:59:09.760Z,951.52
2018-12-20T05:00:09.626Z,951.47
2018-12-20T05:01:09.484Z,951.48
2018-12-20T05:02:09.465Z,951.44
2018-12-20T05:03:09.558Z,951.45
2018-12-20T05:04:09.501Z,951.48
2018-12-20T05:05:09.429Z,951.46
2018-12-20T05:06:09.393Z,951.5
2018-12-20T05:07:09.411Z,951.49
2018-12-20T05:08:09.718Z,951.57
2018-12-20T05:09:09.572Z,951.53
2018-12-20T05:10:09.565Z,951.55
2018-12-20T05:11:09.300Z,951.57
2018-12-20T05:12:09.566Z,951.59
2018-12-20T05:13:09.320Z,951.59
2018-12-20T05:14:09.387Z,951.57
2018-12-20T05:15:09.224Z,951.63
2018-12-20T05:16:09.374Z,951.57
2018-12-20T05:17:09.214Z,951.64
2018-12-20T05:18:09.172Z,951.63
2018-12-20T05:19:09.196Z,951.63
2018-12-20T05:20:09.173Z,951.65
2018-12-20T05:21:09.160Z,951.62
2018-12-20T05:22:09.254Z,951.66
2018-12-20T05:23:09.129Z,951.66
2018-12-20T05:24:09.059Z,951.67
2018-12-20T05:25:09.193Z,951.65
2018-12-20T05:26:09.045Z,951.6
2018-12-20T05:27:09.204Z,951.67
2018-12-20T05:28:08.987Z,951.72
2018-12-20T05:29:09.290Z,951.73
2018-12-20T05:30:09.128Z,951.73
2018-12-20T05:31:08.930Z,951.74
2018-12-20T05:32:09.103Z,951.74
2018-12-20T05:33:08.893Z,951.77
2018-12-20T05:34:08.876Z,951.73
2018-12-20T05:35:09.082Z,951.71
2018-12-20T05:36:08.949Z,951.73
2018-12-20T05:37:08.849Z,951.73
2018-12-20T05:38:08.803Z,951.73
2018-12-20T05:39:08.893Z,951.7
2018-12-20T05:40:08.934Z,951.7
2018-12-20T05:41:08.749Z,951.68
2018-12-20T05:42:08.838Z,951.65
2018-12-20T05:43:08.919Z,951.71
2018-12-20T05:44:08.769Z,951.69
2018-12-20T05:45:08.675Z,951.66
2018-12-20T05:46:08.688Z,951.66
2018-12-20T05:47:08.636Z,951.68
2018-12-20T05:48:08.796Z,951.69
2018-12-20T05:49:08.740Z,951.72
2018-12-20T05:50:08.590Z,951.71
2018-12-20T05:51:08.562Z,951.74
2018-12-20T05:52:08.545Z,951.78
2018-12-20T05:53:08.525Z,951.78
2018-12-20T05:54:08.508Z,951.74
2018-12-20T05:55:08.626Z,951.7
2018-12-20T05:56:08.471Z,951.74
2018-12-20T05:57:08.478Z,951.79
2018-12-20T05:58:08.454Z,951.75
2018-12-20T05:59:08.631Z,951.75
2018-12-20T06:00:08.408Z,951.78
2018-12-20T06:01:08.379Z,951.73
2018-12-20T06:02:08.373Z,951.75
2018-12-20T06:03:08.454Z,951.79
2018-12-20T06:04:08.576Z,951.77
2018-12-20T06:05:08.306Z,951.83
2018-12-20T06:06:08.287Z,951.89
2018-12-20T06:07:08.345Z,951.79
2018-12-20T06:08:08.437Z,951.81
2018-12-20T06:09:08.232Z,951.85
2018-12-20T06:10:08.214Z,951.82
2018-12-20T06:11:08.195Z,951.84
2018-12-20T06:12:08.334Z,951.83
2018-12-20T06:13:08.159Z,951.83
2018-12-20T06:14:08.351Z,951.8
2018-12-20T06:15:08.121Z,951.83
2018-12-20T06:16:12.550Z,951.82
2018-12-20T06:17:08.087Z,951.8
2018-12-20T06:18:08.070Z,951.83
2018-12-20T06:19:08.048Z,951.88
2018-12-20T06:20:08.071Z,951.84
2018-12-20T06:21:08.074Z,951.86
2018-12-20T06:22:08.006Z,951.84
2018-12-20T06:23:07.974Z,951.83
2018-12-20T06:24:07.957Z,951.8
2018-12-20T06:25:07.944Z,951.81
2018-12-20T06:26:07.974Z,951.86
2018-12-20T06:27:07.902Z,951.85
2018-12-20T06:28:07.883Z,951.87
2018-12-20T06:29:07.865Z,951.8
2018-12-20T06:30:07.847Z,951.8
2018-12-20T06:31:07.830Z,951.86
2018-12-20T06:32:07.811Z,951.81
2018-12-20T06:33:07.791Z,951.82
2018-12-20T06:34:07.774Z,951.83
2018-12-20T06:35:07.757Z,951.85
2018-12-20T06:36:07.738Z,951.84
2018-12-20T06:37:07.719Z,951.85
2018-12-20T06:38:07.702Z,951.82
2018-12-20T06:39:07.684Z,951.88
2018-12-20T06:40:07.666Z,951.89
2018-12-20T06:41:07.646Z,951.88
2018-12-20T06:42:07.630Z,951.88
2018-12-20T06:43:07.611Z,951.85
2018-12-20T06:44:07.596Z,951.83
2018-12-20T06:45:07.572Z,951.84
2018-12-20T06:46:07.556Z,951.86
2018-12-20T06:47:07.540Z,951.84
2018-12-20T06:48:07.519Z,951.87
2018-12-20T06:49:07.501Z,951.85
2018-12-20T06:50:07.483Z,951.93
2018-12-20T06:51:07.466Z,951.91
2018-12-20T06:52:07.446Z,951.99
2018-12-20T06:53:07.430Z,951.98
2018-12-20T06:54:07.410Z,951.99
2018-12-20T06:55:07.391Z,951.97
2018-12-20T06:56:07.372Z,952
2018-12-20T06:57:07.354Z,951.96
2018-12-20T06:58:07.338Z,952
2018-12-20T06:59:07.681Z,951.98
2018-12-20T07:00:07.300Z,951.95
2018-12-20T07:01:07.285Z,951.93
2018-12-20T07:02:07.264Z,951.92
2018-12-20T07:03:07.244Z,951.96
2018-12-20T07:04:07.226Z,952.02
2018-12-20T07:05:07.209Z,952.03
2018-12-20T07:06:07.198Z,952.06
2018-12-20T07:07:07.172Z,952.04
2018-12-20T07:08:07.153Z,952.05
2018-12-20T07:09:07.136Z,952.05
2018-12-20T07:10:07.117Z,952.03
2018-12-20T07:11:07.100Z,952.13
2018-12-20T07:12:07.080Z,952.11
2018-12-20T07:13:07.063Z,952.13
2018-12-20T07:14:07.044Z,952.06
2018-12-20T07:15:07.026Z,952.06
2018-12-20T07:16:07.008Z,952.02
2018-12-20T07:17:06.991Z,952.02
2018-12-20T07:18:06.971Z,952.02
2018-12-20T07:19:07.033Z,952.05
2018-12-20T07:20:06.942Z,952.09
2018-12-20T07:21:06.918Z,952.14
2018-12-20T07:22:06.899Z,952.1
2018-12-20T07:23:06.882Z,952.16
2018-12-20T07:24:06.864Z,952.15
2018-12-20T07:25:06.846Z,952.11
2018-12-20T07:26:06.826Z,952.18
2018-12-20T07:27:06.812Z,952.16
2018-12-20T07:28:06.842Z,952.13
2018-12-20T07:29:06.773Z,952.13
2018-12-20T07:30:06.755Z,952.17
2018-12-20T07:31:06.742Z,952.11
2018-12-20T07:32:06.718Z,952.14
2018-12-20T07:33:06.699Z,952.17
2018-12-20T07:34:06.681Z,952.16
2018-12-20T07:35:06.666Z,952.21
2018-12-20T07:36:06.647Z,952.22
2018-12-20T07:37:06.629Z,952.25
2018-12-20T07:38:06.611Z,952.27
2018-12-20T07:39:06.591Z,952.29
2018-12-20T07:40:06.573Z,952.3
2018-12-20T07:41:06.556Z,952.26
2018-12-20T07:42:06.538Z,952.23
2018-12-20T07:43:06.519Z,952.25
2018-12-20T07:44:06.501Z,952.31
2018-12-20T07:45:06.484Z,952.27
2018-12-20T07:46:06.466Z,952.32
2018-12-20T07:47:06.447Z,952.28
2018-12-20T07:48:06.430Z,952.26
2018-12-20T07:49:06.411Z,952.27
2018-12-20T07:50:06.393Z,952.27
2018-12-20T07:51:06.376Z,952.28
2018-12-20T07:52:06.359Z,952.31
2018-12-20T07:53:06.340Z,952.26
2018-12-20T07:54:06.323Z,952.29
2018-12-20T07:55:06.305Z,952.31
2018-12-20T07:56:06.285Z,952.36
2018-12-20T07:57:06.266Z,952.26
2018-12-20T07:58:06.250Z,952.29
2018-12-20T07:59:06.230Z,952.26
2018-12-20T08:00:06.214Z,952.29
2018-12-20T08:01:06.195Z,952.3
2018-12-20T08:02:06.181Z,952.33
2018-12-20T08:03:06.160Z,952.27
2018-12-20T08:04:06.142Z,952.22
2018-12-20T08:05:06.124Z,952.3
2018-12-20T08:06:06.109Z,952.28
2018-12-20T08:07:06.089Z,952.31
2018-12-20T08:08:06.069Z,952.34
2018-12-20T08:09:06.053Z,952.37
2018-12-20T08:10:06.036Z,952.34
2018-12-20T08:11:06.017Z,952.32
2018-12-20T08:12:05.999Z,952.31
2018-12-20T08:13:05.981Z,952.31
2018-12-20T08:14:05.963Z,952.3
2018-12-20T08:15:05.947Z,952.28
2018-12-20T08:16:05.928Z,952.3
2018-12-20T08:17:05.910Z,952.28
2018-12-20T08:18:05.894Z,952.32
2018-12-20T08:19:05.875Z,952.32
2018-12-20T08:20:05.856Z,952.32
2018-12-20T08:21:05.843Z,952.35
2018-12-20T08:22:05.822Z,952.32
2018-12-20T08:23:05.804Z,952.31
2018-12-20T08:24:05.787Z,952.35
2018-12-20T08:25:05.771Z,952.34
2018-12-20T08:26:05.752Z,952.3
2018-12-20T08:27:05.733Z,952.35
2018-12-20T08:28:05.718Z,952.39
2018-12-20T08:29:05.697Z,952.4
2018-12-20T08:30:05.680Z,952.38
2018-12-20T08:31:05.662Z,952.39
2018-12-20T08:32:05.647Z,952.42
2018-12-20T08:33:05.628Z,952.46
2018-12-20T08:34:05.609Z,952.43
2018-12-20T08:35:05.593Z,952.43
2018-12-20T08:36:05.575Z,952.46
2018-12-20T08:37:05.557Z,952.49
2018-12-20T08:38:05.538Z,952.48
2018-12-20T08:39:05.522Z,952.5
2018-12-20T08:40:05.554Z,952.5
2018-12-20T08:41:05.496Z,952.48
2018-12-20T08:42:05.471Z,952.44
2018-12-20T08:43:05.453Z,952.45
2018-12-20T08:44:05.434Z,952.5
2018-12-20T08:45:05.416Z,952.47
2018-12-20T08:46:05.398Z,952.49
2018-12-20T08:47:05.385Z,952.51
2018-12-20T08:48:05.368Z,952.55
2018-12-20T08:49:05.347Z,952.53
2018-12-20T08:50:05.330Z,952.46
2018-12-20T08:51:05.313Z,952.45
2018-12-20T08:52:05.295Z,952.49
2018-12-20T08:53:05.277Z,952.48
2018-12-20T08:54:05.259Z,952.51
2018-12-20T08:55:05.243Z,952.52
2018-12-20T08:56:05.227Z,952.55
2018-12-20T08:57:05.209Z,952.55
2018-12-20T08:58:05.190Z,952.58
2018-12-20T08:59:05.174Z,952.52
2018-12-20T09:00:05.155Z,952.53
2018-12-20T09:01:05.139Z,952.59
2018-12-20T09:02:05.121Z,952.6
2018-12-20T09:03:05.103Z,952.62
2018-12-20T09:04:05.087Z,952.65
2018-12-20T09:05:05.069Z,952.69
2018-12-20T09:06:05.054Z,952.69
2018-12-20T09:07:05.035Z,952.68
2018-12-20T09:08:05.018Z,952.71
2018-12-20T09:09:05.000Z,952.71
2018-12-20T09:10:04.986Z,952.71
2018-12-20T09:11:04.968Z,952.74
2018-12-20T09:12:04.951Z,952.77
2018-12-20T09:13:09.459Z,952.72
2018-12-20T09:14:04.922Z,952.71
2018-12-20T09:15:04.900Z,952.74
2018-12-20T09:16:04.883Z,952.73
2018-12-20T09:17:04.866Z,952.74
2018-12-20T09:18:04.850Z,952.7
2018-12-20T09:19:04.832Z,952.72
2018-12-20T09:20:04.815Z,952.77
2018-12-20T09:21:04.798Z,952.72
2018-12-20T09:22:04.781Z,952.75
2018-12-20T09:23:04.769Z,952.74
2018-12-20T09:24:04.749Z,952.75
2018-12-20T09:25:04.731Z,952.76
2018-12-20T09:26:04.714Z,952.74
2018-12-20T09:27:04.700Z,952.77
2018-12-20T09:28:04.681Z,952.72
2018-12-20T09:29:04.665Z,952.7
2018-12-20T09:30:04.648Z,952.73
2018-12-20T09:31:04.633Z,952.72
2018-12-20T09:32:04.615Z,952.72
2018-12-20T09:33:04.599Z,952.71
2018-12-20T09:34:04.582Z,952.64
2018-12-20T09:35:04.566Z,952.65
2018-12-20T09:36:04.549Z,952.64
2018-12-20T09:37:04.532Z,952.63
2018-12-20T09:38:04.516Z,952.67
2018-12-20T09:39:04.540Z,952.65
2018-12-20T09:40:04.483Z,952.69
2018-12-20T09:41:04.513Z,952.69
2018-12-20T09:42:04.451Z,952.69
2018-12-20T09:43:04.434Z,952.69
2018-12-20T09:44:04.419Z,952.67
2018-12-20T09:45:04.402Z,952.65
2018-12-20T09:46:04.385Z,952.66
2018-12-20T09:47:11.535Z,952.63
2018-12-20T09:48:04.354Z,952.66
2018-12-20T09:49:04.336Z,952.62
2018-12-20T09:50:04.320Z,952.61
2018-12-20T09:51:04.304Z,952.6
2018-12-20T09:52:04.286Z,952.58
2018-12-20T09:53:04.271Z,952.58
2018-12-20T09:54:04.254Z,952.6
2018-12-20T09:55:04.239Z,952.61
2018-12-20T09:56:04.220Z,952.59
2018-12-20T09:57:04.213Z,952.55
2018-12-20T09:58:04.188Z,952.53
2018-12-20T09:59:04.171Z,952.52
2018-12-20T10:00:04.158Z,952.55
2018-12-20T10:01:04.141Z,952.54
2018-12-20T10:02:04.125Z,952.59
2018-12-20T10:03:04.106Z,952.59
2018-12-20T10:04:04.095Z,952.56
2018-12-20T10:05:04.083Z,952.51
2018-12-20T10:06:04.058Z,952.53
2018-12-20T10:07:04.041Z,952.49
2018-12-20T10:08:04.027Z,952.49
2018-12-20T10:09:04.007Z,952.46
2018-12-20T10:10:03.995Z,952.44
2018-12-20T10:11:03.977Z,952.43
2018-12-20T10:12:03.962Z,952.39
2018-12-20T10:13:03.943Z,952.39
2018-12-20T10:14:03.927Z,952.36
2018-12-20T10:15:03.911Z,952.33
2018-12-20T10:16:03.894Z,952.31
2018-12-20T10:17:03.879Z,952.26
2018-12-20T10:18:03.864Z,952.28
2018-12-20T10:19:03.847Z,952.32
2018-12-20T10:20:03.834Z,952.33
2018-12-20T10:21:03.917Z,952.31
2018-12-20T10:22:03.799Z,952.36
2018-12-20T10:23:03.783Z,952.33
2018-12-20T10:24:03.766Z,952.3
2018-12-20T10:25:03.751Z,952.24
2018-12-20T10:26:03.734Z,952.27
2018-12-20T10:27:03.722Z,952.22
2018-12-20T10:28:03.702Z,952.28
2018-12-20T10:29:03.688Z,952.29
2018-12-20T10:30:03.674Z,952.26
2018-12-20T10:31:03.662Z,952.4
2018-12-20T10:32:03.638Z,952.3
2018-12-20T10:33:03.622Z,952.36
2018-12-20T10:34:03.609Z,952.3
2018-12-20T10:35:03.592Z,952.35
2018-12-20T10:36:03.574Z,952.28
2018-12-20T10:37:03.565Z,952.32
2018-12-20T10:38:03.542Z,952.22
2018-12-20T10:39:03.526Z,952.22
2018-12-20T10:40:03.511Z,952.26
2018-12-20T10:41:03.510Z,952.19
2018-12-20T10:42:03.482Z,952.17
2018-12-20T10:43:03.464Z,952.16
2018-12-20T10:44:03.449Z,952.13
2018-12-20T10:45:03.433Z,952.19
2018-12-20T10:46:03.416Z,952.1
2018-12-20T10:47:03.403Z,952.11
2018-12-20T10:48:03.386Z,952.15
2018-12-20T10:49:03.370Z,952.15
2018-12-20T10:50:03.355Z,952.13
2018-12-20T10:51:03.338Z,952.12
2018-12-20T10:52:03.324Z,952.1
2018-12-20T10:53:03.318Z,952.07
2018-12-20T10:54:03.302Z,952.03
2018-12-20T10:55:03.275Z,952.05
2018-12-20T10:56:03.260Z,952
2018-12-20T10:57:03.252Z,952.03
2018-12-20T10:58:03.229Z,952.03
2018-12-20T10:59:03.213Z,952.04
2018-12-20T11:00:03.196Z,952.03
2018-12-20T11:01:03.182Z,951.98
2018-12-20T11:02:03.166Z,951.9
2018-12-20T11:03:03.151Z,951.96
2018-12-20T11:04:03.331Z,951.92
2018-12-20T11:05:03.118Z,951.88
2018-12-20T11:06:03.104Z,951.93
2018-12-20T11:07:03.086Z,951.91
2018-12-20T11:08:03.073Z,951.97
2018-12-20T11:09:03.056Z,952.03
2018-12-20T11:10:03.039Z,951.97
2018-12-20T11:11:03.024Z,951.99
2018-12-20T11:12:03.009Z,951.96
2018-12-20T11:13:02.993Z,951.99
2018-12-20T11:14:02.976Z,951.98
2018-12-20T11:15:02.960Z,951.89
2018-12-20T11:16:02.944Z,951.84
2018-12-20T11:17:02.931Z,951.9
2018-12-20T11:18:02.913Z,951.84
2018-12-20T11:19:02.897Z,951.81
2018-12-20T11:20:02.883Z,951.81
2018-12-20T11:21:02.869Z,951.87
2018-12-20T11:22:02.851Z,951.87
2018-12-20T11:23:02.836Z,951.84
2018-12-20T11:24:02.819Z,951.87
2018-12-20T11:25:02.805Z,951.84
2018-12-20T11:26:02.789Z,951.73
2018-12-20T11:27:02.774Z,951.74
2018-12-20T11:28:02.757Z,951.72
2018-12-20T11:29:02.741Z,951.74
2018-12-20T11:30:02.725Z,951.77
2018-12-20T11:31:02.710Z,951.83
2018-12-20T11:32:02.696Z,951.76
2018-12-20T11:33:02.680Z,951.84
2018-12-20T11:34:02.663Z,951.85
2018-12-20T11:35:02.647Z,951.8
2018-12-20T11:36:02.633Z,951.86
2018-12-20T11:37:02.616Z,951.86
2018-12-20T11:38:02.601Z,951.84
2018-12-20T11:39:08.295Z,951.8
2018-12-20T11:40:02.568Z,951.78
2018-12-20T11:41:02.554Z,951.81
2018-12-20T11:42:02.537Z,951.78
2018-12-20T11:43:02.522Z,951.83
2018-12-20T11:44:02.506Z,951.82
2018-12-20T11:45:02.489Z,951.83
2018-12-20T11:46:02.476Z,951.84
2018-12-20T11:47:02.459Z,951.9
2018-12-20T11:48:02.483Z,951.83
2018-12-20T11:49:02.425Z,951.85
2018-12-20T11:50:02.415Z,951.88
2018-12-20T11:51:02.394Z,951.82
2018-12-20T11:52:02.378Z,951.85
2018-12-20T11:53:02.363Z,951.86
2018-12-20T11:54:02.348Z,951.87
2018-12-20T11:55:02.331Z,951.84
2018-12-20T11:56:02.313Z,951.84
2018-12-20T11:57:02.299Z,951.79
2018-12-20T11:58:02.284Z,951.79
2018-12-20T11:59:02.272Z,951.85
2018-12-20T12:00:02.251Z,951.83
2018-12-20T12:01:02.234Z,951.82
2018-12-20T12:02:02.218Z,951.88
2018-12-20T12:03:02.202Z,951.83
2018-12-20T12:04:02.187Z,951.82
2018-12-20T12:05:02.173Z,951.85
2018-12-20T12:06:02.154Z,951.88
2018-12-20T12:07:02.146Z,951.89
2018-12-20T12:08:02.125Z,951.91
2018-12-20T12:09:02.110Z,951.97
2018-12-20T12:10:02.093Z,951.96
2018-12-20T12:11:02.077Z,951.96
2018-12-20T12:12:02.060Z,951.98
2018-12-20T12:13:02.042Z,951.99
2018-12-20T12:14:02.027Z,952.01
2018-12-20T12:15:02.011Z,952.01
2018-12-20T12:16:02.000Z,952.03
2018-12-20T12:17:01.979Z,952.03
2018-12-20T12:18:01.964Z,952.05
2018-12-20T12:19:01.948Z,951.99
2018-12-20T12:20:01.933Z,952.02
2018-12-20T12:21:01.916Z,952.07
2018-12-20T12:22:01.905Z,952.05
2018-12-20T12:23:01.883Z,952.06
2018-12-20T12:24:01.869Z,952.07
2018-12-20T12:25:01.853Z,952.02
2018-12-20T12:26:01.837Z,952.02
2018-12-20T12:27:01.821Z,952.04
2018-12-20T12:28:01.804Z,952.08
2018-12-20T12:29:01.789Z,952.02
2018-12-20T12:30:01.772Z,952.04